createdAt,value
2017-09-20T00:01:41.692Z,101731.11
2017-09-20T00:03:44.152Z,101734.28
2017-09-20T00:05:46.593Z,101730.48
2017-09-20T00:07:49.046Z,101722.28
2017-09-20T00:09:51.518Z,101718.94
2017-09-20T00:11:54.006Z,101723.12
2017-09-20T00:13:56.528Z,101723.67
2017-09-20T00:15:59.000Z,101732.03
2017-09-20T00:18:01.505Z,101731.44
2017-09-20T00:20:03.984Z,101727.52
2017-09-20T00:22:06.498Z,101732.78
2017-09-20T00:24:08.941Z,101729.86
2017-09-20T00:26:11.437Z,101735.41
2017-09-20T00:28:13.914Z,101726.39
2017-09-20T00:30:16.366Z,101723.38
2017-09-20T00:32:18.825Z,101726.22
2017-09-20T00:34:21.325Z,101725.89
2017-09-20T00:36:23.798Z,101724.72
2017-09-20T00:38:26.318Z,101724.15
2017-09-20T00:40:28.805Z,101718.48
2017-09-20T00:42:31.277Z,101717.16
2017-09-20T00:44:33.726Z,101715.47
2017-09-20T00:46:36.201Z,101716.41
2017-09-20T00:48:38.672Z,101712.83
2017-09-20T00:50:41.242Z,101718.82
2017-09-20T00:52:43.772Z,101716.30
2017-09-20T00:54:46.368Z,101723.38
2017-09-20T00:56:48.806Z,101716.38
2017-09-20T00:58:51.434Z,101722.77
2017-09-20T01:00:54.111Z,101719.59
2017-09-20T01:02:56.682Z,101716.61
2017-09-20T01:04:59.253Z,101714.48
2017-09-20T01:07:01.842Z,101713.89
2017-09-20T01:09:04.312Z,101717.11
2017-09-20T01:11:06.874Z,101709.97
2017-09-20T01:13:09.412Z,101710.60
2017-09-20T01:15:11.929Z,101707.98
2017-09-20T01:17:14.456Z,101713.38
2017-09-20T01:19:16.973Z,101714.17
2017-09-20T01:21:31.344Z,101715.98
2017-09-20T01:23:36.560Z,101714.89
2017-09-20T01:25:39.076Z,101710.41
2017-09-20T01:27:41.523Z,101706.31
2017-09-20T01:29:44.097Z,101714.31
2017-09-20T01:31:46.552Z,101719.78
2017-09-20T01:33:49.113Z,101708.61
2017-09-20T01:35:51.680Z,101712.92
2017-09-20T01:37:54.127Z,101709.08
2017-09-20T01:39:56.572Z,101712.80
2017-09-20T01:41:59.051Z,101713.97
2017-09-20T01:44:01.481Z,101710.05
2017-09-20T01:46:04.012Z,101711.00
2017-09-20T01:48:06.560Z,101710.16
2017-09-20T01:50:09.160Z,101710.75
2017-09-20T01:52:11.607Z,101714.09
2017-09-20T01:54:14.305Z,101705.91
2017-09-20T01:56:16.824Z,101702.41
2017-09-20T01:58:19.346Z,101712.40
2017-09-20T02:00:21.822Z,101709.63
2017-09-20T02:02:24.352Z,101709.63
2017-09-20T02:04:26.863Z,101704.77
2017-09-20T02:06:29.328Z,101708.63
2017-09-20T02:08:31.767Z,101704.27
2017-09-20T02:10:34.248Z,101705.52
2017-09-20T02:12:36.704Z,101705.19
2017-09-20T02:14:39.157Z,101705.81
2017-09-20T02:16:41.628Z,101706.27
2017-09-20T02:18:44.116Z,101703.92
2017-09-20T02:20:46.627Z,101701.14
2017-09-20T02:22:49.160Z,101705.89
2017-09-20T02:24:51.647Z,101704.27
2017-09-20T02:26:54.103Z,101703.86
2017-09-20T02:28:56.584Z,101700.50
2017-09-20T02:30:59.049Z,101701.42
2017-09-20T02:33:01.513Z,101696.12
2017-09-20T02:35:03.972Z,101699.05
2017-09-20T02:37:06.436Z,101702.27
2017-09-20T02:39:09.001Z,101697.80
2017-09-20T02:41:11.439Z,101700.47
2017-09-20T02:43:14.006Z,101699.30
2017-09-20T02:45:16.463Z,101693.66
2017-09-20T02:47:18.978Z,101699.05
2017-09-20T02:49:21.492Z,101690.77
2017-09-20T02:51:23.929Z,101689.70
2017-09-20T02:53:26.412Z,101689.61
2017-09-20T02:55:29.185Z,101692.91
2017-09-20T02:57:31.764Z,101698.55
2017-09-20T02:59:34.330Z,101695.08
2017-09-20T03:01:36.795Z,101699.80
2017-09-20T03:03:39.260Z,101698.17
2017-09-20T03:05:41.789Z,101693.14
2017-09-20T03:07:44.357Z,101697.25
2017-09-20T03:09:46.821Z,101694.73
2017-09-20T03:11:49.276Z,101703.16
2017-09-20T03:13:51.873Z,101698.88
2017-09-20T03:15:54.364Z,101700.55
2017-09-20T03:17:56.824Z,101706.95
2017-09-20T03:19:59.312Z,101702.84
2017-09-20T03:22:01.852Z,101702.64
2017-09-20T03:24:04.360Z,101701.55
2017-09-20T03:26:06.997Z,101702.59
2017-09-20T03:28:09.465Z,101703.11
2017-09-20T03:30:11.918Z,101708.20
2017-09-20T03:32:14.569Z,101708.58
2017-09-20T03:34:17.085Z,101704.84
2017-09-20T03:36:19.571Z,101705.19
2017-09-20T03:38:22.044Z,101715.02
2017-09-20T03:40:24.799Z,101713.50
2017-09-20T03:42:27.365Z,101716.80
2017-09-20T03:44:29.873Z,101720.23
2017-09-20T03:46:32.400Z,101714.92
2017-09-20T03:48:34.884Z,101718.95
2017-09-20T03:50:37.457Z,101718.61
2017-09-20T03:52:39.901Z,101721.26
2017-09-20T03:54:42.342Z,101722.23
2017-09-20T03:56:45.222Z,101725.27
2017-09-20T03:58:47.847Z,101721.16
2017-09-20T04:00:50.433Z,101717.04
2017-09-20T04:02:52.948Z,101722.00
2017-09-20T04:04:55.437Z,101729.13
2017-09-20T04:06:57.935Z,101726.34
2017-09-20T04:09:00.482Z,101728.39
2017-09-20T04:11:02.946Z,101728.14
2017-09-20T04:13:05.437Z,101725.05
2017-09-20T04:15:07.930Z,101725.70
2017-09-20T04:17:10.435Z,101722.19
2017-09-20T04:19:12.895Z,101726.38
2017-09-20T04:21:15.375Z,101734.03
2017-09-20T04:23:17.810Z,101734.63
2017-09-20T04:25:20.332Z,101735.80
2017-09-20T04:27:22.842Z,101729.84
2017-09-20T04:29:25.300Z,101721.30
2017-09-20T04:31:27.788Z,101713.89
2017-09-20T04:33:30.309Z,101718.05
2017-09-20T04:35:32.779Z,101721.16
2017-09-20T04:37:35.294Z,101721.83
2017-09-20T04:39:37.773Z,101721.98
2017-09-20T04:41:40.221Z,101721.87
2017-09-20T04:43:42.742Z,101722.25
2017-09-20T04:45:45.261Z,101719.61
2017-09-20T04:47:47.704Z,101719.88
2017-09-20T04:49:50.217Z,101717.61
2017-09-20T04:51:52.898Z,101721.06
2017-09-20T04:53:55.466Z,101724.15
2017-09-20T04:55:57.935Z,101729.14
2017-09-20T04:58:00.766Z,101724.10
2017-09-20T05:00:03.238Z,101730.61
2017-09-20T05:02:05.706Z,101729.48
2017-09-20T05:04:08.279Z,101734.63
2017-09-20T05:06:10.744Z,101734.30
2017-09-20T05:08:13.269Z,101743.77
2017-09-20T05:10:15.843Z,101738.27
2017-09-20T05:12:18.321Z,101736.75
2017-09-20T05:14:20.844Z,101741.14
2017-09-20T05:16:23.336Z,101737.09
2017-09-20T05:18:25.789Z,101738.55
2017-09-20T05:20:28.238Z,101739.05
2017-09-20T05:22:30.706Z,101738.66
2017-09-20T05:24:33.208Z,101733.70
2017-09-20T05:26:35.769Z,101734.20
2017-09-20T05:28:38.385Z,101739.52
2017-09-20T05:30:40.865Z,101735.75
2017-09-20T05:32:43.323Z,101731.14
2017-09-20T05:34:45.907Z,101734.55
2017-09-20T05:36:48.352Z,101737.45
2017-09-20T05:38:50.840Z,101740.42
2017-09-20T05:40:53.311Z,101739.47
2017-09-20T05:42:55.793Z,101746.06
2017-09-20T05:44:58.299Z,101746.26
2017-09-20T05:47:00.761Z,101747.80
2017-09-20T05:49:03.245Z,101748.48
2017-09-20T05:51:05.730Z,101748.81
2017-09-20T05:53:08.240Z,101747.25
2017-09-20T05:55:10.803Z,101746.02
2017-09-20T05:57:13.292Z,101749.45
2017-09-20T05:59:15.895Z,101746.52
2017-09-20T06:01:18.424Z,101750.35
2017-09-20T06:03:20.932Z,101744.91
2017-09-20T06:05:23.560Z,101744.91
2017-09-20T06:07:26.009Z,101744.73
2017-09-20T06:09:28.460Z,101746.16
2017-09-20T06:11:31.072Z,101740.52
2017-09-20T06:13:33.956Z,101743.02
2017-09-20T06:15:36.528Z,101747.08
2017-09-20T06:17:39.097Z,101742.60
2017-09-20T06:19:41.592Z,101747.86
2017-09-20T06:21:44.130Z,101748.12
2017-09-20T06:23:46.731Z,101746.14
2017-09-20T06:25:49.253Z,101745.70
2017-09-20T06:27:51.858Z,101749.77
2017-09-20T06:29:54.439Z,101752.48
2017-09-20T06:31:56.921Z,101756.69
2017-09-20T06:33:59.494Z,101755.01
2017-09-20T06:36:02.045Z,101756.28
2017-09-20T06:38:04.531Z,101749.70
2017-09-20T06:40:07.025Z,101747.09
2017-09-20T06:42:09.832Z,101750.88
2017-09-20T06:44:12.308Z,101756.05
2017-09-20T06:46:14.908Z,101756.80
2017-09-20T06:48:17.584Z,101748.63
2017-09-20T06:50:21.043Z,101753.87
2017-09-20T06:52:23.548Z,101752.94
2017-09-20T06:54:26.124Z,101766.68
2017-09-20T06:56:29.488Z,101763.40
2017-09-20T06:58:31.928Z,101772.00
2017-09-20T07:00:34.513Z,101768.62
2017-09-20T07:02:37.026Z,101769.89
2017-09-20T07:04:39.479Z,101770.91
2017-09-20T07:06:42.068Z,101769.06
2017-09-20T07:08:44.562Z,101767.72
2017-09-20T07:10:47.073Z,101764.91
2017-09-20T07:12:49.575Z,101765.75
2017-09-20T07:14:52.008Z,101767.73
2017-09-20T07:16:54.456Z,101761.91
2017-09-20T07:18:57.003Z,101769.34
2017-09-20T07:20:59.449Z,101767.92
2017-09-20T07:23:01.988Z,101768.34
2017-09-20T07:25:04.484Z,101769.78
2017-09-20T07:27:07.016Z,101772.97
2017-09-20T07:29:09.464Z,101771.81
2017-09-20T07:31:12.063Z,101770.20
2017-09-20T07:33:14.531Z,101772.05
2017-09-20T07:35:17.165Z,101771.05
2017-09-20T07:37:19.649Z,101776.77
2017-09-20T07:39:22.114Z,101764.88
2017-09-20T07:41:24.723Z,101769.09
2017-09-20T07:43:27.190Z,101768.09
2017-09-20T07:45:29.665Z,101757.80
2017-09-20T07:47:32.188Z,101765.90
2017-09-20T07:49:34.761Z,101765.05
2017-09-20T07:51:37.201Z,101763.86
2017-09-20T07:53:39.634Z,101775.02
2017-09-20T07:55:42.145Z,101772.22
2017-09-20T07:57:44.749Z,101770.44
2017-09-20T07:59:48.179Z,101770.17
2017-09-20T08:01:50.730Z,101772.20
2017-09-20T08:03:53.216Z,101772.90
2017-09-20T08:05:55.718Z,101771.89
2017-09-20T08:07:58.221Z,101777.10
2017-09-20T08:10:00.797Z,101774.50
2017-09-20T08:12:03.290Z,101778.47
2017-09-20T08:14:05.756Z,101776.59
2017-09-20T08:16:08.264Z,101779.64
2017-09-20T08:18:10.741Z,101779.79
2017-09-20T08:20:13.451Z,101785.96
2017-09-20T08:22:15.926Z,101788.66
2017-09-20T08:24:18.365Z,101788.33
2017-09-20T08:26:20.990Z,101789.83
2017-09-20T08:28:23.532Z,101791.69
2017-09-20T08:30:25.980Z,101796.27
2017-09-20T08:32:28.564Z,101790.18
2017-09-20T08:34:31.025Z,101788.91
2017-09-20T08:36:33.465Z,101790.41
2017-09-20T08:38:35.964Z,101788.83
2017-09-20T08:40:38.426Z,101789.76
2017-09-20T08:42:40.879Z,101793.20
2017-09-20T08:44:43.462Z,101795.98
2017-09-20T08:46:46.772Z,101794.70
2017-09-20T08:48:49.293Z,101795.41
2017-09-20T08:50:51.775Z,101789.65
2017-09-20T08:52:54.792Z,101792.27
2017-09-20T08:54:57.232Z,101793.63
2017-09-20T08:56:59.692Z,101792.38
2017-09-20T08:59:02.232Z,101798.38
2017-09-20T09:01:04.671Z,101796.75
2017-09-20T09:03:07.580Z,101802.08
2017-09-20T09:05:10.024Z,101795.40
2017-09-20T09:07:12.527Z,101796.17
2017-09-20T09:09:15.073Z,101800.38
2017-09-20T09:11:17.540Z,101801.81
2017-09-20T09:13:20.028Z,101809.77
2017-09-20T09:15:22.598Z,101803.08
2017-09-20T09:17:25.053Z,101799.27
2017-09-20T09:19:27.585Z,101793.36
2017-09-20T09:21:30.040Z,101796.48
2017-09-20T09:23:32.693Z,101799.69
2017-09-20T09:25:35.274Z,101792.77
2017-09-20T09:27:37.878Z,101797.83
2017-09-20T09:29:40.341Z,101791.73
2017-09-20T09:31:42.864Z,101794.51
2017-09-20T09:33:45.343Z,101789.02
2017-09-20T09:35:47.789Z,101793.14
2017-09-20T09:37:50.232Z,101792.80
2017-09-20T09:39:52.733Z,101792.14
2017-09-20T09:41:55.331Z,101789.10
2017-09-20T09:43:57.807Z,101793.62
2017-09-20T09:46:00.272Z,101793.77
2017-09-20T09:48:02.843Z,101790.91
2017-09-20T09:50:05.402Z,101794.20
2017-09-20T09:52:07.935Z,101784.73
2017-09-20T09:54:10.376Z,101794.01
2017-09-20T09:56:12.821Z,101798.41
2017-09-20T09:58:15.298Z,101794.30
2017-09-20T10:00:17.801Z,101791.21
2017-09-20T10:02:20.237Z,101793.45
2017-09-20T10:04:22.842Z,101790.81
2017-09-20T10:06:25.377Z,101797.80
2017-09-20T10:08:27.852Z,101793.81
2017-09-20T10:10:30.304Z,101787.11
2017-09-20T10:12:32.732Z,101790.61
2017-09-20T10:14:35.372Z,101790.30
2017-09-20T10:16:37.941Z,101789.61
2017-09-20T10:18:40.514Z,101790.39
2017-09-20T10:20:42.952Z,101784.52
2017-09-20T10:22:45.429Z,101784.41
2017-09-20T10:24:47.943Z,101783.98
2017-09-20T10:26:50.502Z,101781.85
2017-09-20T10:28:52.981Z,101779.48
2017-09-20T10:30:55.447Z,101775.34
2017-09-20T10:32:58.886Z,101772.37
2017-09-20T10:35:01.353Z,101771.53
2017-09-20T10:37:03.792Z,101771.72
2017-09-20T10:39:06.316Z,101768.53
2017-09-20T10:41:08.876Z,101770.67
2017-09-20T10:43:11.348Z,101764.41
2017-09-20T10:45:13.861Z,101763.98
2017-09-20T10:47:16.483Z,101762.83
2017-09-20T10:49:18.924Z,101763.41
2017-09-20T10:51:21.378Z,101761.63
2017-09-20T10:53:23.904Z,101761.05
2017-09-20T10:55:26.489Z,101763.06
2017-09-20T10:57:28.924Z,101754.88
2017-09-20T10:59:31.384Z,101758.58
2017-09-20T11:01:33.866Z,101754.03
2017-09-20T11:03:36.321Z,101756.00
2017-09-20T11:05:38.922Z,101756.43
2017-09-20T11:07:41.381Z,101754.08
2017-09-20T11:09:43.889Z,101753.16
2017-09-20T11:11:46.476Z,101748.87
2017-09-20T11:13:48.913Z,101746.48
2017-09-20T11:15:51.459Z,101748.34
2017-09-20T11:17:53.988Z,101750.97
2017-09-20T11:19:56.464Z,101753.67
2017-09-20T11:21:58.917Z,101758.42
2017-09-20T11:24:01.382Z,101751.94
2017-09-20T11:26:03.855Z,101748.54
2017-09-20T11:28:06.340Z,101750.01
2017-09-20T11:30:08.903Z,101747.27
2017-09-20T11:32:11.345Z,101750.50
2017-09-20T11:34:13.856Z,101746.84
2017-09-20T11:36:16.340Z,101743.83
2017-09-20T11:38:18.900Z,101739.85
2017-09-20T11:40:21.390Z,101743.17
2017-09-20T11:42:23.880Z,101733.17
2017-09-20T11:44:26.344Z,101735.98
2017-09-20T11:46:28.879Z,101731.44
2017-09-20T11:48:31.486Z,101729.66
2017-09-20T11:50:33.935Z,101738.94
2017-09-20T11:52:36.388Z,101735.73
2017-09-20T11:54:38.964Z,101727.12
2017-09-20T11:56:41.539Z,101729.52
2017-09-20T11:58:44.011Z,101728.58
2017-09-20T12:00:46.521Z,101725.69
2017-09-20T12:02:49.052Z,101723.41
2017-09-20T12:04:51.625Z,101722.64
2017-09-20T12:06:54.096Z,101720.28
2017-09-20T12:08:56.606Z,101724.91
2017-09-20T12:10:59.044Z,101716.48
2017-09-20T12:13:01.668Z,101727.11
2017-09-20T12:15:04.136Z,101716.72
2017-09-20T12:17:06.755Z,101729.30
2017-09-20T12:19:09.289Z,101724.74
2017-09-20T12:21:11.749Z,101727.52
2017-09-20T12:23:14.185Z,101721.07
2017-09-20T12:25:16.734Z,101718.64
2017-09-20T12:27:19.310Z,101714.44
2017-09-20T12:29:21.793Z,101720.27
2017-09-20T12:31:24.277Z,101712.59
2017-09-20T12:33:26.765Z,101711.23
2017-09-20T12:35:29.272Z,101704.41
2017-09-20T12:37:31.720Z,101704.83
2017-09-20T12:39:34.201Z,101714.95
2017-09-20T12:41:36.700Z,101713.02
2017-09-20T12:43:39.165Z,101708.96
2017-09-20T12:45:41.608Z,101710.39
2017-09-20T12:47:44.048Z,101710.73
2017-09-20T12:49:46.509Z,101714.09
2017-09-20T12:51:48.956Z,101711.47
2017-09-20T12:53:51.420Z,101708.54
2017-09-20T12:55:53.933Z,101710.39
2017-09-20T12:57:56.563Z,101714.87
2017-09-20T12:59:59.033Z,101711.24
2017-09-20T13:02:01.518Z,101708.37
2017-09-20T13:04:04.075Z,101705.14
2017-09-20T13:06:06.564Z,101710.55
2017-09-20T13:08:09.219Z,101708.27
2017-09-20T13:10:11.680Z,101709.54
2017-09-20T13:12:14.142Z,101706.84
2017-09-20T13:14:16.705Z,101701.08
2017-09-20T13:16:19.201Z,101706.84
2017-09-20T13:18:21.644Z,101710.47
2017-09-20T13:20:24.165Z,101703.48
2017-09-20T13:22:26.666Z,101709.19
2017-09-20T13:24:29.140Z,101706.56
2017-09-20T13:26:31.640Z,101705.13
2017-09-20T13:28:34.232Z,101711.31
2017-09-20T13:30:36.804Z,101706.75
2017-09-20T13:32:39.377Z,101702.20
2017-09-20T13:34:41.807Z,101701.87
2017-09-20T13:36:44.254Z,101702.56
2017-09-20T13:38:46.750Z,101705.34
2017-09-20T13:40:49.181Z,101705.11
2017-09-20T13:42:51.719Z,101701.98
2017-09-20T13:44:54.219Z,101704.61
2017-09-20T13:46:56.660Z,101701.41
2017-09-20T13:48:59.140Z,101698.17
2017-09-20T13:51:01.609Z,101701.98
2017-09-20T13:53:04.076Z,101701.87
2017-09-20T13:55:06.612Z,101698.42
2017-09-20T13:57:09.198Z,101699.43
2017-09-20T13:59:11.655Z,101703.91
2017-09-20T14:01:14.164Z,101701.70
2017-09-20T14:03:16.643Z,101704.75
2017-09-20T14:05:19.092Z,101703.83
2017-09-20T14:07:21.611Z,101699.09
2017-09-20T14:09:24.449Z,101702.91
2017-09-20T14:11:26.967Z,101698.43
2017-09-20T14:13:30.375Z,101699.51
2017-09-20T14:15:32.839Z,101693.37
2017-09-20T14:17:35.298Z,101697.07
2017-09-20T14:19:37.936Z,101701.20
2017-09-20T14:21:40.453Z,101694.87
2017-09-20T14:23:42.994Z,101700.20
2017-09-20T14:25:45.479Z,101701.28
2017-09-20T14:27:47.973Z,101699.94
2017-09-20T14:29:50.486Z,101696.73
2017-09-20T14:31:53.060Z,101699.44
2017-09-20T14:33:55.530Z,101697.00
2017-09-20T14:35:58.000Z,101692.95
2017-09-20T14:38:00.485Z,101695.88
2017-09-20T14:40:03.057Z,101694.73
2017-09-20T14:42:05.512Z,101693.87
2017-09-20T14:44:08.053Z,101698.85
2017-09-20T14:46:10.607Z,101688.63
2017-09-20T14:48:13.235Z,101696.66
2017-09-20T14:50:15.832Z,101697.23
2017-09-20T14:52:18.302Z,101698.43
2017-09-20T14:54:20.823Z,101689.24
2017-09-20T14:56:23.292Z,101689.81
2017-09-20T14:58:25.818Z,101692.94
2017-09-20T15:00:28.290Z,101684.06
2017-09-20T15:02:30.759Z,101684.65
2017-09-20T15:04:33.266Z,101683.49
2017-09-20T15:06:35.748Z,101682.80
2017-09-20T15:08:38.215Z,101675.19
2017-09-20T15:10:40.815Z,101675.73
2017-09-20T15:12:43.399Z,101675.86
2017-09-20T15:14:45.933Z,101666.67
2017-09-20T15:16:48.440Z,101663.89
2017-09-20T15:18:50.907Z,101663.55
2017-09-20T15:20:53.806Z,101670.89
2017-09-20T15:22:56.459Z,101660.34
2017-09-20T15:24:58.944Z,101668.95
2017-09-20T15:27:01.466Z,101665.33
2017-09-20T15:29:04.006Z,101664.75
2017-09-20T15:31:06.645Z,101667.87
2017-09-20T15:33:09.319Z,101663.33
2017-09-20T15:35:11.888Z,101667.03
2017-09-20T15:37:15.327Z,101666.77
2017-09-20T15:39:17.767Z,101669.89
2017-09-20T15:41:20.271Z,101665.26
2017-09-20T15:43:22.772Z,101665.60
2017-09-20T15:45:25.207Z,101662.82
2017-09-20T15:47:28.628Z,101674.63
2017-09-20T15:49:31.176Z,101669.39
2017-09-20T15:51:33.659Z,101670.85
2017-09-20T15:53:36.149Z,101673.30
2017-09-20T15:55:38.607Z,101671.09
2017-09-20T15:57:41.108Z,101668.46
2017-09-20T15:59:43.782Z,101673.13
2017-09-20T16:01:46.217Z,101672.02
2017-09-20T16:03:48.652Z,101668.50
2017-09-20T16:05:51.137Z,101671.79
2017-09-20T16:07:53.664Z,101669.01
2017-09-20T16:09:56.160Z,101671.79
2017-09-20T16:11:58.752Z,101671.13
2017-09-20T16:14:01.236Z,101673.30
2017-09-20T16:16:03.746Z,101677.70
2017-09-20T16:18:06.322Z,101671.86
2017-09-20T16:20:08.790Z,101677.55
2017-09-20T16:22:11.284Z,101676.19
2017-09-20T16:24:13.748Z,101673.98
2017-09-20T16:26:16.186Z,101670.09
2017-09-20T16:28:18.678Z,101675.00
2017-09-20T16:30:21.131Z,101675.19
2017-09-20T16:32:23.718Z,101669.02
2017-09-20T16:34:26.160Z,101671.79
2017-09-20T16:36:28.656Z,101670.67
2017-09-20T16:38:31.270Z,101674.06
2017-09-20T16:40:33.711Z,101674.30
2017-09-20T16:42:36.169Z,101679.11
2017-09-20T16:44:38.609Z,101676.99
2017-09-20T16:46:41.110Z,101676.57
2017-09-20T16:48:43.593Z,101680.89
2017-09-20T16:50:46.381Z,101680.47
2017-09-20T16:52:49.030Z,101685.37
2017-09-20T16:54:51.514Z,101678.61
2017-09-20T16:56:54.048Z,101687.14
2017-09-20T16:58:56.543Z,101686.10
2017-09-20T17:00:59.081Z,101683.59
2017-09-20T17:03:01.587Z,101688.57
2017-09-20T17:05:04.033Z,101690.27
2017-09-20T17:07:06.605Z,101685.45
2017-09-20T17:09:09.155Z,101689.42
2017-09-20T17:11:11.597Z,101688.73
2017-09-20T17:13:14.437Z,101688.42
2017-09-20T17:15:16.872Z,101692.20
2017-09-20T17:17:19.300Z,101689.50
2017-09-20T17:19:21.754Z,101693.98
2017-09-20T17:21:24.207Z,101691.97
2017-09-20T17:23:26.655Z,101688.50
2017-09-20T17:25:29.108Z,101689.52
2017-09-20T17:27:31.545Z,101689.70
2017-09-20T17:29:33.983Z,101691.20
2017-09-20T17:31:36.475Z,101692.56
2017-09-20T17:33:38.945Z,101691.20
2017-09-20T17:35:41.474Z,101688.36
2017-09-20T17:37:43.944Z,101691.56
2017-09-20T17:39:46.386Z,101694.10
2017-09-20T17:41:48.838Z,101691.91
2017-09-20T17:43:51.341Z,101692.41
2017-09-20T17:45:53.814Z,101694.27
2017-09-20T17:47:56.285Z,101701.63
2017-09-20T17:49:58.799Z,101703.98
2017-09-20T17:52:01.258Z,101705.41
2017-09-20T17:54:03.804Z,101708.03
2017-09-20T17:56:06.315Z,101708.73
2017-09-20T17:58:08.762Z,101715.22
2017-09-20T18:00:11.201Z,101714.64
2017-09-20T18:02:13.728Z,101715.06
2017-09-20T18:04:16.270Z,101715.64
2017-09-20T18:06:18.763Z,101720.27
2017-09-20T18:08:21.454Z,101722.98
2017-09-20T18:10:23.898Z,101723.94
2017-09-20T18:12:26.656Z,101725.28
2017-09-20T18:14:29.209Z,101726.64
2017-09-20T18:16:31.723Z,101727.56
2017-09-20T18:18:34.201Z,101734.31
2017-09-20T18:20:36.784Z,101738.02
2017-09-20T18:22:39.409Z,101733.47
2017-09-20T18:24:42.038Z,101731.69
2017-09-20T18:26:44.521Z,101733.97
2017-09-20T18:28:47.078Z,101733.78
2017-09-20T18:30:49.553Z,101737.17
2017-09-20T18:32:52.950Z,101732.35
2017-09-20T18:34:55.416Z,101739.03
2017-09-20T18:36:57.910Z,101735.67
2017-09-20T18:39:00.417Z,101738.95
2017-09-20T18:41:02.922Z,101734.05
2017-09-20T18:43:05.804Z,101739.72
2017-09-20T18:45:08.680Z,101739.11
2017-09-20T18:47:11.464Z,101739.95
2017-09-20T18:49:13.943Z,101739.53
2017-09-20T18:51:17.646Z,101747.40
2017-09-20T18:53:20.273Z,101739.88
2017-09-20T18:55:22.713Z,101742.15
2017-09-20T18:57:25.178Z,101748.48
2017-09-20T18:59:28.097Z,101737.52
2017-09-20T19:01:30.796Z,101735.59
2017-09-20T19:03:33.576Z,101742.84
2017-09-20T19:05:36.101Z,101740.88
2017-09-20T19:07:38.639Z,101739.64
2017-09-20T19:09:41.107Z,101736.17
2017-09-20T19:11:43.552Z,101741.14
2017-09-20T19:13:46.025Z,101739.72
2017-09-20T19:15:48.700Z,101743.93
2017-09-20T19:17:51.258Z,101741.42
2017-09-20T19:19:53.744Z,101739.38
2017-09-20T19:21:56.383Z,101736.25
2017-09-20T19:23:58.826Z,101742.42
2017-09-20T19:26:01.364Z,101742.92
2017-09-20T19:28:03.845Z,101740.72
2017-09-20T19:30:06.296Z,101737.17
2017-09-20T19:32:08.783Z,101734.47
2017-09-20T19:34:11.342Z,101740.38
2017-09-20T19:36:13.875Z,101747.32
2017-09-20T19:38:16.315Z,101735.40
2017-09-20T19:40:18.911Z,101739.03
2017-09-20T19:42:21.408Z,101735.51
2017-09-20T19:44:23.840Z,101734.89
2017-09-20T19:46:26.314Z,101741.92
2017-09-20T19:48:28.824Z,101736.02
2017-09-20T19:50:31.290Z,101739.72
2017-09-20T19:52:33.746Z,101736.44
2017-09-20T19:54:36.208Z,101731.19
2017-09-20T19:56:38.730Z,101731.03
2017-09-20T19:58:41.396Z,101730.00
2017-09-20T20:00:43.996Z,101728.64
2017-09-20T20:02:46.433Z,101733.31
2017-09-20T20:04:48.896Z,101734.89
2017-09-20T20:06:51.334Z,101736.52
2017-09-20T20:08:53.926Z,101740.30
2017-09-20T20:10:56.404Z,101736.67
2017-09-20T20:12:58.891Z,101738.97
2017-09-20T20:15:01.361Z,101737.02
2017-09-20T20:17:03.933Z,101739.21
2017-09-20T20:19:06.422Z,101743.11
2017-09-20T20:21:09.078Z,101738.28
2017-09-20T20:23:11.577Z,101737.44
2017-09-20T20:25:14.089Z,101742.84
2017-09-20T20:27:16.546Z,101744.53
2017-09-20T20:29:19.013Z,101743.27
2017-09-20T20:31:21.490Z,101748.59
2017-09-20T20:33:23.933Z,101746.31
2017-09-20T20:35:26.434Z,101747.31
2017-09-20T20:37:28.873Z,101750.86
2017-09-20T20:39:31.365Z,101751.37
2017-09-20T20:41:33.900Z,101747.39
2017-09-20T20:43:36.458Z,101748.08
2017-09-20T20:45:38.909Z,101754.41
2017-09-20T20:47:41.429Z,101751.55
2017-09-20T20:49:43.889Z,101757.88
2017-09-20T20:51:46.345Z,101757.69
2017-09-20T20:53:48.864Z,101753.25
2017-09-20T20:55:51.312Z,101754.83
2017-09-20T20:57:53.783Z,101754.48
2017-09-20T20:59:56.311Z,101753.98
2017-09-20T21:01:58.762Z,101757.11
2017-09-20T21:04:01.317Z,101759.81
2017-09-20T21:06:03.984Z,101765.56
2017-09-20T21:08:06.509Z,101761.51
2017-09-20T21:10:09.011Z,101760.16
2017-09-20T21:12:11.552Z,101759.23
2017-09-20T21:14:14.040Z,101765.98
2017-09-20T21:16:16.484Z,101758.81
2017-09-20T21:18:19.220Z,101767.14
2017-09-20T21:20:21.728Z,101766.14
2017-09-20T21:22:24.178Z,101770.88
2017-09-20T21:24:26.686Z,101768.49
2017-09-20T21:26:29.169Z,101767.67
2017-09-20T21:28:31.721Z,101769.53
2017-09-20T21:30:34.187Z,101773.16
2017-09-20T21:32:36.616Z,101769.84
2017-09-20T21:34:39.133Z,101773.74
2017-09-20T21:36:41.643Z,101770.27
2017-09-20T21:38:44.099Z,101769.95
2017-09-20T21:40:46.544Z,101764.98
2017-09-20T21:42:49.013Z,101765.29
2017-09-20T21:44:51.485Z,101764.44
2017-09-20T21:46:53.925Z,101769.45
2017-09-20T21:48:56.406Z,101766.41
2017-09-20T21:50:58.935Z,101767.75
2017-09-20T21:53:01.411Z,101766.13
2017-09-20T21:55:03.971Z,101770.03
2017-09-20T21:57:06.521Z,101766.98
2017-09-20T21:59:08.996Z,101765.82
2017-09-20T22:01:11.654Z,101759.37
2017-09-20T22:03:14.178Z,101758.03
2017-09-20T22:05:16.620Z,101761.84
2017-09-20T22:07:19.150Z,101761.34
2017-09-20T22:09:21.698Z,101765.82
2017-09-20T22:11:24.303Z,101764.05
2017-09-20T22:13:26.869Z,101764.55
2017-09-20T22:15:41.336Z,101772.22
2017-09-20T23:33:27.999Z,101774.65
2017-09-20T23:35:30.559Z,101778.97
2017-09-20T23:37:33.015Z,101773.65
2017-09-20T23:39:35.512Z,101771.64
2017-09-20T23:41:38.006Z,101767.83
2017-09-20T23:43:40.458Z,101772.81
2017-09-20T23:45:43.002Z,101776.44
2017-09-20T23:47:45.493Z,101774.23
2017-09-20T23:49:47.966Z,101773.66
2017-09-20T23:51:50.667Z,101769.34
2017-09-20T23:53:53.169Z,101770.19
2017-09-20T23:55:55.685Z,101774.51
2017-09-20T23:57:58.161Z,101778.13
